This is the latest recevied weather packets stored in our database for station/object DD3FC-1. If no packets are shown the sender has not sent any weather packets the latest 1 day(s).
| Time | Temp. | Humidity | Pressure | Rain* | Wind** | Luminosity | Snow |
|---|---|---|---|---|---|---|---|
| 1778060423 | 19.44° C | 59% | 1008 hPa | 0 mm | - | - | - |
| 1778059823 | 18.33° C | 61% | 1008 hPa | 0 mm | - | - | - |
| 1778059223 | 18.33° C | 61% | 1008 hPa | 0 mm | - | - | - |
| 1778058623 | 18.89° C | 61% | 1007.9 hPa | 0 mm | - | - | - |
| 1778058023 | 18.33° C | 66% | 1007.9 hPa | 0 mm | - | - | - |
| 1778057423 | 18.33° C | 64% | 1007.9 hPa | 0 mm | - | - | - |
| 1778056823 | 17.78° C | 64% | 1007.7 hPa | 0.25 mm | - | - | - |
| 1778056223 | 18.33° C | 63% | 1007.9 hPa | 0.25 mm | - | - | - |
| 1778055623 | 18.33° C | 64% | 1007.9 hPa | 0.25 mm | - | - | - |
| 1778055023 | 17.78° C | 66% | 1007.7 hPa | 0.25 mm | - | - | - |
| 1778054423 | 16.67° C | 72% | 1007.5 hPa | 0.25 mm | - | - | - |
| 1778053223 | 16.67° C | 72% | 1007.7 hPa | 0 mm | - | - | - |
| 1778050823 | 15.56° C | 79% | 1007.6 hPa | 0 mm | - | - | - |
| 1778046624 | 13.33° C | 87% | 1007.3 hPa | 0 mm | - | - | - |
| 1778046024 | 13.33° C | 89% | 1007.3 hPa | 0 mm | - | - | - |
| 1778045424 | 12.78° C | 90% | 1007.4 hPa | 0 mm | - | - | - |
| 1778044824 | 12.78° C | 90% | 1007.5 hPa | 0 mm | - | - | - |
| 1778044224 | 12.22° C | 90% | 1007.5 hPa | 0 mm | - | - | - |
| 1778043624 | 12.22° C | 90% | 1007.6 hPa | 0 mm | - | - | - |
| 1778043024 | 12.22° C | 90% | 1007.5 hPa | 0 mm | - | - | - |
| 1778042424 | 12.22° C | 90% | 1007.5 hPa | 0 mm | - | - | - |
| 1778041824 | 12.22° C | 90% | 1007.5 hPa | 0 mm | - | - | - |
| 1778041224 | 12.22° C | 90% | 1007.5 hPa | 0 mm | - | - | - |
| 1778040624 | 12.22° C | 90% | 1007.5 hPa | 0 mm | - | - | - |
| 1778040024 | 12.22° C | 90% | 1007.4 hPa | 0 mm | - | - | - |
* Rain latest hour (hover to see other rain measurements)
** Current wind speed in m/s (hover to see current wind gust speed)